»·PEaware :: N800DW KBOI-KMFR

N800DW :: KBOI-KMFR

FLIGHT INFORMATION

Flight Status: Arrived
Operator: Privately registered:
United States
More flights under this callsign
Pilot: Scott L. (17677)
Aircraft: Unknown
(EPIC)
More flights by this aircraft type
Origin: KBOI Boise Air Terminal/Gowen
United States
Destination: KMFR Rogue Valley Intl-Medford
United States
More flights between these airports :: More routes between these airports
Route: +BOI3 RENOL V113 REO V122 LANKS
File this flight plan on PilotEdge
Remarks:
Altitude:
(Current/Filed)
30,000ft
Speed:
(Current/Filed)
280kts
Departed: 07-Apr-18 09:22 AM
Arrived: 07-Apr-18 11:07 AM
Distance/Time
Traveled:
301nm/1:45
Distance/Time
To Go:
Arrived

Flight Plot

Page will automatically refresh every two minutes.

Flight plan parsing failed; only flown route is shown


Map Options




Map Legend


Flown Route
Filed Route
Departure Airport
Arrival Airport
Navaid (VOR, NDB)
Fix

Horizontal Profiles

Position Reports

Time Latitude Longitude Heading Altitude Ground
Speed
07-Apr-18 09:13 43.562159 -116.205902 269 2843ft 0kts
07-Apr-18 09:14 43.562159 -116.205902 269 2843ft 0kts
07-Apr-18 09:15 43.562159 -116.205902 269 2843ft 0kts
07-Apr-18 09:16 43.562159 -116.205902 269 2843ft 0kts
07-Apr-18 09:17 43.562159 -116.205902 269 2843ft 0kts
07-Apr-18 09:18 43.562159 -116.205902 269 2843ft 0kts
07-Apr-18 09:19 43.561174 -116.205987 215 2842ft 14kts
07-Apr-18 09:20 43.562833 -116.211687 294 2842ft 19kts
07-Apr-18 09:21 43.569480 -116.231145 295 2842ft 63kts
07-Apr-18 09:22 43.570837 -116.235787 212 2842ft 0kts
07-Apr-18 09:23 43.570120 -116.236194 158 2842ft 11kts
07-Apr-18 09:24 43.569690 -116.235199 117 2842ft 43kts
07-Apr-18 09:25 43.556510 -116.181745 109 5136ft 186kts
07-Apr-18 09:26 43.536161 -116.116842 165 8826ft 195kts
07-Apr-18 09:27 43.510668 -116.171904 258 12478ft 210kts
07-Apr-18 09:28 43.501832 -116.250236 250 15532ft 213kts
07-Apr-18 09:29 43.475763 -116.321991 236 18252ft 201kts
07-Apr-18 09:30 43.443293 -116.385650 234 20365ft 204kts
07-Apr-18 09:31 43.409268 -116.447571 234 22119ft 204kts
07-Apr-18 09:32 43.374800 -116.509085 234 23529ft 205kts
07-Apr-18 09:33 43.339963 -116.570876 234 24670ft 205kts
07-Apr-18 09:34 43.304908 -116.632861 235 25599ft 206kts
07-Apr-18 09:35 43.269750 -116.694857 234 26406ft 207kts
07-Apr-18 09:36 43.234465 -116.756971 235 27100ft 207kts
07-Apr-18 09:37 43.198944 -116.819364 235 27665ft 208kts
07-Apr-18 09:38 43.163326 -116.881778 235 28136ft 208kts
07-Apr-18 09:39 43.127922 -116.943717 235 28615ft 205kts
07-Apr-18 09:40 43.093008 -117.004669 235 28997ft 202kts
07-Apr-18 09:41 43.058635 -117.064540 234 29307ft 199kts
07-Apr-18 09:42 43.024794 -117.123327 234 29540ft 196kts
07-Apr-18 09:43 42.990730 -117.182386 234 29590ft 199kts
07-Apr-18 09:44 42.956250 -117.242081 235 29631ft 202kts
07-Apr-18 09:45 42.921079 -117.302859 235 29650ft 205kts
07-Apr-18 09:46 42.886427 -117.362601 235 29658ft 209kts
07-Apr-18 09:47 42.849972 -117.425352 235 29657ft 212kts
07-Apr-18 09:48 42.813242 -117.488413 236 29655ft 213kts
07-Apr-18 09:49 42.776345 -117.551635 235 29654ft 213kts
07-Apr-18 09:50 42.739470 -117.614684 235 29652ft 213kts
07-Apr-18 09:51 42.702856 -117.677132 235 29668ft 214kts
07-Apr-18 09:52 42.665546 -117.740666 235 29667ft 216kts
07-Apr-18 09:53 42.628099 -117.804282 235 29666ft 216kts
07-Apr-18 09:54 42.593914 -117.870322 257 29655ft 217kts
07-Apr-18 09:55 42.589070 -117.952258 259 29662ft 218kts
07-Apr-18 09:56 42.586402 -118.029693 260 29661ft 218kts
07-Apr-18 09:57 42.583998 -118.112129 260 29660ft 218kts
07-Apr-18 09:58 42.581669 -118.194467 260 29658ft 218kts
07-Apr-18 09:59 42.579307 -118.276461 260 29657ft 217kts
07-Apr-18 10:00 42.576892 -118.358393 261 29655ft 217kts
07-Apr-18 10:01 42.574429 -118.440048 261 29654ft 217kts
07-Apr-18 10:02 42.571915 -118.521699 260 29652ft 216kts
07-Apr-18 10:03 42.569345 -118.603289 260 29650ft 216kts
07-Apr-18 10:04 42.566754 -118.683150 260 29666ft 216kts
07-Apr-18 10:05 42.564057 -118.765131 260 29665ft 218kts
07-Apr-18 10:06 42.561312 -118.847267 259 29660ft 218kts
07-Apr-18 10:07 42.558521 -118.929001 258 29650ft 215kts
07-Apr-18 10:08 42.555707 -119.009538 256 29639ft 212kts
07-Apr-18 10:09 42.552844 -119.088413 256 29634ft 208kts
07-Apr-18 10:10 42.549971 -119.166716 256 29634ft 206kts
07-Apr-18 10:11 42.547135 -119.243860 255 29635ft 202kts
07-Apr-18 10:12 42.544149 -119.321160 256 28979ft 215kts
07-Apr-18 10:13 42.540930 -119.404963 256 27942ft 229kts
07-Apr-18 10:14 42.537494 -119.492617 257 26890ft 237kts
07-Apr-18 10:15 42.533896 -119.582683 257 25829ft 242kts
07-Apr-18 10:16 42.530140 -119.674503 257 24794ft 247kts
07-Apr-18 10:17 42.526225 -119.768611 257 23826ft 252kts
07-Apr-18 10:18 42.522348 -119.860398 257 23736ft 238kts
07-Apr-18 10:19 42.518507 -119.948822 257 23734ft 233kts
07-Apr-18 10:20 42.514660 -120.035909 257 23733ft 231kts
07-Apr-18 10:21 42.511415 -120.108321 257 23732ft 230kts
07-Apr-18 10:22 42.507483 -120.194898 257 23731ft 230kts
07-Apr-18 10:23 42.503488 -120.281241 257 23729ft 230kts
07-Apr-18 10:24 42.499429 -120.367711 257 23728ft 229kts
07-Apr-18 10:25 42.495326 -120.453655 257 23727ft 229kts
07-Apr-18 10:26 42.480448 -120.549778 246 23725ft 221kts
07-Apr-18 10:27 42.463147 -120.615084 245 23723ft 221kts
07-Apr-18 10:28 42.442068 -120.692775 245 23649ft 225kts
07-Apr-18 10:29 42.419841 -120.773999 245 23172ft 234kts
07-Apr-18 10:30 42.396879 -120.857562 245 22682ft 239kts
07-Apr-18 10:31 42.373495 -120.942334 245 22179ft 242kts
07-Apr-18 10:32 42.349779 -121.027997 245 21666ft 246kts
07-Apr-18 10:33 42.325527 -121.115301 245 21143ft 251kts
07-Apr-18 10:34 42.300698 -121.204355 246 20613ft 256kts
07-Apr-18 10:35 42.275251 -121.295316 246 20073ft 260kts
07-Apr-18 10:36 42.249521 -121.386953 246 19527ft 263kts
07-Apr-18 10:37 42.223352 -121.479804 246 18972ft 266kts
07-Apr-18 10:38 42.196907 -121.573279 246 18411ft 269kts
07-Apr-18 10:39 42.170151 -121.667486 245 17858ft 271kts
07-Apr-18 10:40 42.161315 -121.768272 271 17325ft 288kts
07-Apr-18 10:41 42.176919 -121.877761 274 16166ft 301kts
07-Apr-18 10:42 42.193936 -121.987870 274 15497ft 299kts
07-Apr-18 10:43 42.210934 -122.097523 275 14957ft 299kts
07-Apr-18 10:44 42.227784 -122.206769 275 14503ft 290kts
07-Apr-18 10:45 42.240534 -122.281619 287 12881ft 276kts
07-Apr-18 10:46 42.240534 -122.281619 287 12881ft 276kts
07-Apr-18 10:47 42.240534 -122.281619 287 12881ft 276kts
07-Apr-18 10:48 42.260514 -122.336700 289 11614ft 272kts
07-Apr-18 10:49 42.294314 -122.425877 291 9782ft 260kts
07-Apr-18 10:50 42.331851 -122.498670 314 9290ft 239kts
07-Apr-18 10:51 42.380084 -122.551456 314 7734ft 183kts
07-Apr-18 10:52 42.410639 -122.581250 314 7716ft 93kts
07-Apr-18 10:53 42.441619 -122.611449 314 7747ft 171kts
07-Apr-18 10:54 42.482124 -122.654979 314 7745ft 197kts
07-Apr-18 10:55 42.526486 -122.704094 314 7413ft 219kts
07-Apr-18 10:56 42.574203 -122.759155 314 6768ft 229kts
07-Apr-18 10:57 42.620966 -122.813618 314 6744ft 216kts
07-Apr-18 10:58 42.642150 -122.876280 254 6744ft 189kts
07-Apr-18 10:59 42.628342 -122.938750 254 6743ft 165kts
07-Apr-18 11:00 42.592813 -122.968101 184 6300ft 208kts
07-Apr-18 11:01 42.532578 -122.956384 162 4537ft 225kts
07-Apr-18 11:02 42.477827 -122.927350 162 3540ft 187kts
07-Apr-18 11:03 42.432052 -122.903245 162 2423ft 147kts
07-Apr-18 11:04 42.397039 -122.884605 162 1613ft 131kts
07-Apr-18 11:05 42.370967 -122.871202 153 1319ft 50kts
07-Apr-18 11:06 42.371271 -122.872997 339 1319ft 20kts

Navigation Log

Ident Type
Flight plan parsing failed, navigation log unavailable